Noelville, Canada
Current Conditions -  °F | °C
As of 8:00 AM on Saturday 25 Oct 2014 (Local Time) from CYSB Reporting Station
Overcast Overcast  
Wind Chill: 43°   Ceiling: 300
Heat Index: 48°   Visibility: 8mi
Dew Point: 48°   Wind: 14mph
Humidity: 100%   Direction: 220°SW
Pressure: 29.56"   Gusts: 21mph
Location:  46.13°N, 80.43°W
Report Text: CYSB 251200Z 22012G18KT 8SM OVC003 09/09 A2956 RMK CF8 PRESRR SLP018
Loading
Personal Weather Stations






























Interactive Weather Map
Tropical Storm Tracking
New forecast layout! Learn more

10-Day Weather Forecast

Advertisements
Track Severe Weather on mobile